createdAt,value
2022-09-25T00:00:51.581Z,7.05
2022-09-25T00:03:18.953Z,8.35
2022-09-25T00:05:47.145Z,8.68
2022-09-25T00:08:16.343Z,6.35
2022-09-25T00:10:45.094Z,7.40
2022-09-25T00:13:11.890Z,7.80
2022-09-25T00:15:45.037Z,6.15
2022-09-25T00:18:11.648Z,10.23
2022-09-25T00:20:38.245Z,6.05
2022-09-25T00:23:04.863Z,6.95
2022-09-25T00:25:31.436Z,9.80
2022-09-25T00:27:58.108Z,7.35
2022-09-25T00:30:24.794Z,8.20
2022-09-25T00:32:51.419Z,11.38
2022-09-25T00:35:18.146Z,8.10
2022-09-25T00:37:44.718Z,9.65
2022-09-25T00:40:11.806Z,6.30
2022-09-25T00:42:38.546Z,6.18
2022-09-25T00:45:13.328Z,6.43
2022-09-25T00:47:49.510Z,5.70
2022-09-25T00:50:39.218Z,5.65
2022-09-25T00:53:37.319Z,5.22
2022-09-25T00:56:05.125Z,6.18
2022-09-25T00:58:35.163Z,7.20
2022-09-25T01:01:01.864Z,8.10
2022-09-25T01:03:28.856Z,7.28
2022-09-25T01:06:00.159Z,8.73
2022-09-25T01:08:28.366Z,6.25
2022-09-25T01:10:55.633Z,6.25
2022-09-25T01:13:22.720Z,15.13
2022-09-25T01:16:28.386Z,6.38
2022-09-25T01:19:13.147Z,5.93
2022-09-25T01:21:50.348Z,6.38
2022-09-25T01:24:41.102Z,5.60
2022-09-25T01:27:29.082Z,6.68
2022-09-25T01:30:15.656Z,6.35
2022-09-25T01:33:12.741Z,6.53
2022-09-25T01:36:01.073Z,6.95
2022-09-25T01:38:35.928Z,4.85
2022-09-25T01:41:09.727Z,6.22
2022-09-25T01:43:47.710Z,7.50
2022-09-25T01:46:26.190Z,5.68
2022-09-25T01:49:27.766Z,11.98
2022-09-25T01:51:56.546Z,8.43
2022-09-25T01:54:34.603Z,7.72
2022-09-25T01:57:07.602Z,9.25
2022-09-25T01:59:54.378Z,9.10
2022-09-25T02:02:26.746Z,8.07
2022-09-25T02:05:15.521Z,9.00
2022-09-25T02:07:48.115Z,6.45
2022-09-25T02:10:23.469Z,7.47
2022-09-25T02:12:54.952Z,5.50
2022-09-25T02:15:31.035Z,7.07
2022-09-25T02:18:23.135Z,5.55
2022-09-25T02:20:58.148Z,7.05
2022-09-25T02:23:34.162Z,10.57
2022-09-25T02:26:07.689Z,7.00
2022-09-25T02:28:34.812Z,9.88
2022-09-25T02:31:05.282Z,6.80
2022-09-25T02:33:32.164Z,10.98
2022-09-25T02:36:01.251Z,7.43
2022-09-25T02:38:29.044Z,7.75
2022-09-25T02:41:00.242Z,12.15
2022-09-25T02:44:00.455Z,7.70
2022-09-25T02:46:43.144Z,9.10
2022-09-25T02:49:31.966Z,9.27
2022-09-25T02:52:05.746Z,12.82
2022-09-25T02:54:44.195Z,9.85
2022-09-25T02:57:32.287Z,7.20
2022-09-25T03:00:04.279Z,9.27
2022-09-25T03:02:35.504Z,9.55
2022-09-25T03:05:04.988Z,7.60
2022-09-25T03:07:52.420Z,6.00
2022-09-25T03:10:20.142Z,6.65
2022-09-25T03:12:46.796Z,7.05
2022-09-25T03:15:13.534Z,5.65
2022-09-25T03:17:40.470Z,9.63
2022-09-25T03:20:09.902Z,8.98
2022-09-25T03:22:37.515Z,9.82
2022-09-25T03:25:05.485Z,9.40
2022-09-25T03:27:32.116Z,8.55
2022-09-25T03:29:58.743Z,8.80
2022-09-25T03:32:25.436Z,7.95
2022-09-25T03:34:52.014Z,8.82
2022-09-25T03:37:18.695Z,6.18
2022-09-25T03:39:45.610Z,5.43
2022-09-25T03:42:13.143Z,14.40
2022-09-25T03:44:39.717Z,8.50
2022-09-25T03:47:06.344Z,6.75
2022-09-25T03:49:32.942Z,8.85
2022-09-25T03:52:00.158Z,6.95
2022-09-25T03:54:26.815Z,10.13
2022-09-25T03:56:53.392Z,11.90
2022-09-25T03:59:20.046Z,10.90
2022-09-25T04:01:47.332Z,8.60
2022-09-25T04:04:14.338Z,6.60
2022-09-25T04:06:40.941Z,10.35
2022-09-25T04:09:07.509Z,9.15
2022-09-25T04:11:34.837Z,8.10
2022-09-25T04:14:01.951Z,9.30
2022-09-25T04:16:31.209Z,5.05
2022-09-25T04:18:58.022Z,3.95
2022-09-25T04:21:24.649Z,7.30
2022-09-25T04:24:09.900Z,5.57
2022-09-25T04:26:36.627Z,5.10
2022-09-25T04:29:03.812Z,9.45
2022-09-25T04:31:31.927Z,10.10
2022-09-25T04:33:58.906Z,8.85
2022-09-25T04:36:25.511Z,10.88
2022-09-25T04:38:52.145Z,7.70
2022-09-25T04:41:20.034Z,10.32
2022-09-25T04:43:47.088Z,4.55
2022-09-25T04:46:21.111Z,10.93
2022-09-25T04:48:49.069Z,5.70
2022-09-25T04:51:15.697Z,8.52
2022-09-25T04:53:42.311Z,13.85
2022-09-25T04:56:15.383Z,7.32
2022-09-25T04:58:50.043Z,6.35
2022-09-25T05:01:18.378Z,8.40
2022-09-25T05:03:53.381Z,9.55
2022-09-25T05:06:20.998Z,6.18
2022-09-25T05:08:49.670Z,7.15
2022-09-25T05:11:19.359Z,8.40
2022-09-25T05:13:49.993Z,6.53
2022-09-25T05:16:16.650Z,9.00
2022-09-25T05:18:43.377Z,10.32
2022-09-25T05:21:10.083Z,5.63
2022-09-25T05:23:36.725Z,6.13
2022-09-25T05:26:03.632Z,5.63
2022-09-25T05:28:31.714Z,11.13
2022-09-25T05:31:03.601Z,7.38
2022-09-25T05:33:31.618Z,8.48
2022-09-25T05:36:06.843Z,6.30
2022-09-25T05:38:35.535Z,5.10
2022-09-25T05:41:06.670Z,10.20
2022-09-25T05:43:34.523Z,5.90
2022-09-25T05:46:01.313Z,8.15
2022-09-25T05:48:27.997Z,6.28
2022-09-25T05:50:56.371Z,7.28
2022-09-25T05:53:24.583Z,6.43
2022-09-25T05:56:00.570Z,6.82
2022-09-25T05:58:28.793Z,8.40
2022-09-25T06:00:55.852Z,10.45
2022-09-25T06:03:22.783Z,7.20
2022-09-25T06:05:49.528Z,7.03
2022-09-25T06:08:16.300Z,9.82
2022-09-25T06:10:43.074Z,9.15
2022-09-25T06:13:09.671Z,8.65
2022-09-25T06:15:39.013Z,9.95
2022-09-25T06:18:07.271Z,8.25
2022-09-25T06:20:37.036Z,8.60
2022-09-25T06:23:03.921Z,8.75
2022-09-25T06:25:36.457Z,8.48
2022-09-25T06:28:03.631Z,8.65
2022-09-25T06:30:35.935Z,9.27
2022-09-25T06:33:10.838Z,7.80
2022-09-25T06:35:44.997Z,10.60
2022-09-25T06:38:12.653Z,10.70
2022-09-25T06:40:41.456Z,7.70
2022-09-25T06:43:15.381Z,9.40
2022-09-25T06:45:43.145Z,10.38
2022-09-25T06:48:13.024Z,9.70
2022-09-25T06:50:56.920Z,8.05
2022-09-25T06:53:25.656Z,9.57
2022-09-25T06:55:54.028Z,6.53
2022-09-25T06:58:23.429Z,7.30
2022-09-25T07:00:52.016Z,6.88
2022-09-25T07:03:38.054Z,10.32
2022-09-25T07:06:07.197Z,7.53
2022-09-25T07:08:34.047Z,8.50
2022-09-25T07:11:01.939Z,8.63
2022-09-25T07:13:31.510Z,9.65
2022-09-25T07:16:02.435Z,7.28
2022-09-25T07:18:30.375Z,6.35
2022-09-25T07:21:06.259Z,11.25
2022-09-25T07:23:33.725Z,6.05
2022-09-25T07:26:12.453Z,8.75
2022-09-25T07:28:40.703Z,7.88
2022-09-25T07:31:21.859Z,9.35
2022-09-25T07:33:48.889Z,6.95
2022-09-25T07:36:17.314Z,8.73
2022-09-25T07:38:46.044Z,10.10
2022-09-25T07:41:13.547Z,10.30
2022-09-25T07:43:43.615Z,8.90
2022-09-25T07:46:11.304Z,8.50
2022-09-25T07:48:38.117Z,7.05
2022-09-25T07:51:08.441Z,10.27
2022-09-25T07:53:35.227Z,8.57
2022-09-25T07:56:06.437Z,13.85
2022-09-25T07:58:35.024Z,8.80
2022-09-25T08:01:05.636Z,6.72
2022-09-25T08:03:32.474Z,12.77
2022-09-25T08:06:09.556Z,7.85
2022-09-25T08:08:36.282Z,10.00
2022-09-25T08:11:06.621Z,7.32
2022-09-25T08:13:34.239Z,8.43
2022-09-25T08:16:13.198Z,10.73
2022-09-25T08:18:45.349Z,10.57
2022-09-25T08:21:14.205Z,8.52
2022-09-25T08:23:45.401Z,7.75
2022-09-25T08:26:15.199Z,7.32
2022-09-25T08:28:41.915Z,8.93
2022-09-25T08:31:08.797Z,4.82
2022-09-25T08:33:35.928Z,3.42
2022-09-25T08:36:05.113Z,7.78
2022-09-25T08:38:34.947Z,11.20
2022-09-25T08:41:03.802Z,12.13
2022-09-25T08:43:33.366Z,11.75
2022-09-25T08:46:22.002Z,7.75
2022-09-25T08:49:12.646Z,10.30
2022-09-25T08:51:44.138Z,8.02
2022-09-25T08:54:19.570Z,7.80
2022-09-25T08:56:50.757Z,4.72
2022-09-25T08:59:23.059Z,2.33
2022-09-25T09:01:54.744Z,8.93
2022-09-25T09:04:42.990Z,4.78
2022-09-25T09:07:29.700Z,10.50
2022-09-25T09:10:37.507Z,3.80
2022-09-25T09:13:19.042Z,4.60
2022-09-25T09:16:07.871Z,3.33
2022-09-25T09:18:39.508Z,2.78
2022-09-25T09:21:33.607Z,3.22
2022-09-25T09:24:06.196Z,4.78
2022-09-25T09:27:01.387Z,3.17
2022-09-25T09:29:48.917Z,2.95
2022-09-25T09:32:27.525Z,4.47
2022-09-25T09:35:07.253Z,3.17
2022-09-25T09:37:55.760Z,5.57
2022-09-25T09:40:43.305Z,6.50
2022-09-25T09:43:30.757Z,5.43
2022-09-25T09:46:15.194Z,3.85
2022-09-25T09:49:02.052Z,4.53
2022-09-25T09:51:57.624Z,6.28
2022-09-25T09:54:43.858Z,2.35
2022-09-25T09:57:17.804Z,2.78
2022-09-25T09:59:53.305Z,3.63
2022-09-25T10:02:29.057Z,3.55
2022-09-25T10:04:57.335Z,3.35
2022-09-25T10:07:25.446Z,11.10
2022-09-25T10:09:54.445Z,5.88
2022-09-25T10:12:41.994Z,5.45
2022-09-25T10:15:19.461Z,6.43
2022-09-25T10:17:46.909Z,6.95
2022-09-25T10:20:20.566Z,5.95
2022-09-25T10:22:48.865Z,6.45
2022-09-25T10:25:34.406Z,7.07
2022-09-25T10:28:05.333Z,6.45
2022-09-25T10:30:32.607Z,8.80
2022-09-25T10:33:18.467Z,10.80
2022-09-25T10:35:46.237Z,4.65
2022-09-25T10:38:32.597Z,9.23
2022-09-25T10:41:13.350Z,2.22
2022-09-25T10:43:50.701Z,6.22
2022-09-25T10:47:03.124Z,2.83
2022-09-25T10:49:48.428Z,6.30
2022-09-25T10:52:19.420Z,1.95
2022-09-25T10:54:46.438Z,3.35
2022-09-25T10:57:38.245Z,5.63
2022-09-25T11:00:20.020Z,6.18
2022-09-25T11:02:47.504Z,7.15
2022-09-25T11:05:19.924Z,3.75
2022-09-25T11:07:58.694Z,3.15
2022-09-25T11:10:33.789Z,4.22
2022-09-25T11:13:07.526Z,3.83
2022-09-25T11:15:36.461Z,12.40
2022-09-25T11:18:06.182Z,8.50
2022-09-25T11:20:33.085Z,5.05
2022-09-25T11:23:08.613Z,3.78
2022-09-25T11:25:58.467Z,5.15
2022-09-25T11:28:34.933Z,4.43
2022-09-25T11:31:04.699Z,3.28
2022-09-25T11:33:50.199Z,2.08
2022-09-25T11:36:23.956Z,2.15
2022-09-25T11:39:21.983Z,2.03
2022-09-25T11:41:54.350Z,4.55
2022-09-25T11:44:34.083Z,3.05
2022-09-25T11:47:23.086Z,3.22
2022-09-25T11:49:52.003Z,6.75
2022-09-25T11:52:23.010Z,5.32
2022-09-25T11:55:17.686Z,10.57
2022-09-25T11:57:58.260Z,5.63
2022-09-25T12:00:38.366Z,2.97
2022-09-25T12:03:18.965Z,6.68
2022-09-25T12:06:06.488Z,5.03
2022-09-25T12:08:55.611Z,6.63
2022-09-25T12:11:27.108Z,6.95
2022-09-25T12:14:09.846Z,8.13
2022-09-25T12:16:46.444Z,6.43
2022-09-25T12:19:24.434Z,2.88
2022-09-25T12:22:26.166Z,6.43
2022-09-25T12:25:10.272Z,4.30
2022-09-25T12:27:42.086Z,2.05
2022-09-25T12:30:22.757Z,4.95
2022-09-25T12:33:10.042Z,3.17
2022-09-25T12:35:39.778Z,3.55
2022-09-25T12:38:31.992Z,5.05
2022-09-25T12:41:11.711Z,5.93
2022-09-25T12:43:43.122Z,7.45
2022-09-25T12:46:19.258Z,4.90
2022-09-25T12:49:13.178Z,9.32
2022-09-25T12:51:50.709Z,9.23
2022-09-25T12:54:52.811Z,3.95
2022-09-25T12:57:26.551Z,2.90
2022-09-25T13:00:03.202Z,4.13
2022-09-25T13:02:43.927Z,5.88
2022-09-25T13:05:33.964Z,5.00
2022-09-25T13:08:23.466Z,4.07
2022-09-25T13:11:06.083Z,4.15
2022-09-25T13:13:40.047Z,3.92
2022-09-25T13:16:06.851Z,4.47
2022-09-25T13:18:35.853Z,4.53
2022-09-25T13:21:42.159Z,4.65
2022-09-25T13:24:14.087Z,3.50
2022-09-25T13:27:04.704Z,3.33
2022-09-25T13:29:38.764Z,3.53
2022-09-25T13:32:23.014Z,4.15
2022-09-25T13:34:56.741Z,4.80
2022-09-25T13:37:33.243Z,5.88
2022-09-25T13:40:30.701Z,4.18
2022-09-25T13:43:24.292Z,5.60
2022-09-25T13:46:23.379Z,2.88
2022-09-25T13:48:52.254Z,3.63
2022-09-25T13:51:21.944Z,8.25
2022-09-25T13:53:58.978Z,3.15
2022-09-25T13:56:40.877Z,3.47
2022-09-25T13:59:12.192Z,2.80
2022-09-25T14:01:41.809Z,6.63
2022-09-25T14:04:22.379Z,4.25
2022-09-25T14:06:54.525Z,1.20
2022-09-25T14:09:24.363Z,1.33
2022-09-25T14:12:01.294Z,6.10
2022-09-25T14:14:54.991Z,4.50
2022-09-25T14:17:24.760Z,4.82
2022-09-25T14:19:53.815Z,2.42
2022-09-25T14:22:29.852Z,4.50
2022-09-25T14:24:56.560Z,3.90
2022-09-25T14:27:26.417Z,3.47
2022-09-25T14:30:01.820Z,3.13
2022-09-25T14:32:59.007Z,3.30
2022-09-25T14:35:35.931Z,2.80
2022-09-25T14:38:36.910Z,4.68
2022-09-25T14:41:12.564Z,3.00
2022-09-25T14:43:48.059Z,2.00
2022-09-25T14:46:22.285Z,4.82
2022-09-25T14:49:00.742Z,4.38
2022-09-25T14:51:40.944Z,4.28
2022-09-25T14:54:15.287Z,3.88
2022-09-25T14:56:48.340Z,3.22
2022-09-25T14:59:24.309Z,2.80
2022-09-25T15:01:52.817Z,3.85
2022-09-25T15:04:38.295Z,3.47
2022-09-25T15:07:07.739Z,7.38
2022-09-25T15:09:47.151Z,3.85
2022-09-25T15:12:29.179Z,1.80
2022-09-25T15:15:03.495Z,5.82
2022-09-25T15:17:32.313Z,3.58
2022-09-25T15:20:02.902Z,3.22
2022-09-25T15:22:34.111Z,1.48
2022-09-25T15:25:04.365Z,2.17
2022-09-25T15:27:31.366Z,4.38
2022-09-25T15:30:00.158Z,5.13
2022-09-25T15:32:30.817Z,5.07
2022-09-25T15:35:19.415Z,2.88
2022-09-25T15:37:46.713Z,1.80
2022-09-25T15:40:28.714Z,4.47
2022-09-25T15:42:55.871Z,3.10
2022-09-25T15:45:39.194Z,3.83
2022-09-25T15:48:10.510Z,2.92
2022-09-25T15:50:42.286Z,3.38
2022-09-25T15:53:19.127Z,4.22
2022-09-25T15:55:46.362Z,2.40
2022-09-25T15:58:16.584Z,2.60
2022-09-25T16:01:20.316Z,4.22
2022-09-25T16:04:10.642Z,3.38
2022-09-25T16:06:42.848Z,4.15
2022-09-25T16:09:30.456Z,6.95
2022-09-25T16:12:35.368Z,6.68
2022-09-25T16:15:26.099Z,6.10
2022-09-25T16:18:23.240Z,4.30
2022-09-25T16:21:20.868Z,3.38
2022-09-25T16:23:56.146Z,1.67
2022-09-25T16:26:27.031Z,3.25
2022-09-25T16:29:03.334Z,7.80
2022-09-25T16:31:30.507Z,3.92
2022-09-25T16:33:57.446Z,4.38
2022-09-25T16:36:27.183Z,4.93
2022-09-25T16:39:12.114Z,4.35
2022-09-25T16:41:44.036Z,6.05
2022-09-25T16:44:20.202Z,6.88
2022-09-25T16:47:05.925Z,5.68
2022-09-25T16:49:34.087Z,3.88
2022-09-25T16:52:03.824Z,5.57
2022-09-25T16:54:32.659Z,5.05
2022-09-25T16:57:00.210Z,5.30
2022-09-25T16:59:28.311Z,2.50
2022-09-25T17:02:00.389Z,7.40
2022-09-25T17:04:30.094Z,6.32
2022-09-25T17:06:59.790Z,6.88
2022-09-25T17:09:28.571Z,4.43
2022-09-25T17:12:10.350Z,4.15
2022-09-25T17:14:37.117Z,3.58
2022-09-25T17:17:03.761Z,4.30
2022-09-25T17:19:30.460Z,3.92
2022-09-25T17:21:57.963Z,3.00
2022-09-25T17:24:27.117Z,3.72
2022-09-25T17:26:54.395Z,2.75
2022-09-25T17:29:21.965Z,5.93
2022-09-25T17:31:48.919Z,7.88
2022-09-25T17:34:28.426Z,4.45
2022-09-25T17:36:55.322Z,5.20
2022-09-25T17:39:21.924Z,2.78
2022-09-25T17:41:48.711Z,4.05
2022-09-25T17:44:19.282Z,3.15
2022-09-25T17:46:46.009Z,5.18
2022-09-25T17:49:13.352Z,12.43
2022-09-25T17:51:40.769Z,6.65
2022-09-25T17:54:07.832Z,5.25
2022-09-25T17:56:34.838Z,5.13
2022-09-25T17:59:02.103Z,6.55
2022-09-25T18:01:34.229Z,6.25
2022-09-25T18:04:23.847Z,5.40
2022-09-25T18:06:51.312Z,12.82
2022-09-25T18:09:18.507Z,25.83
2022-09-25T18:11:45.240Z,12.10
2022-09-25T18:14:13.738Z,7.80
2022-09-25T18:16:42.657Z,6.13
2022-09-25T18:19:36.733Z,7.18
2022-09-25T18:22:21.333Z,6.53
2022-09-25T18:24:52.712Z,8.63
2022-09-25T18:27:19.991Z,5.85
2022-09-25T18:29:47.304Z,5.57
2022-09-25T18:32:14.727Z,6.95
2022-09-25T18:34:42.614Z,5.72
2022-09-25T18:37:09.897Z,5.85
2022-09-25T18:39:37.192Z,6.68
2022-09-25T18:42:04.501Z,4.63
2022-09-25T18:44:38.462Z,10.77
2022-09-25T18:47:07.125Z,4.93
2022-09-25T18:49:33.801Z,3.35
2022-09-25T18:52:00.550Z,5.25
2022-09-25T18:54:27.866Z,4.38
2022-09-25T18:56:54.702Z,7.45
2022-09-25T18:59:26.400Z,5.97
2022-09-25T19:01:55.603Z,6.85
2022-09-25T19:04:22.943Z,5.40
2022-09-25T19:06:49.613Z,4.90
2022-09-25T19:09:17.491Z,3.72
2022-09-25T19:11:45.338Z,4.28
2022-09-25T19:14:14.628Z,26.73
2022-09-25T19:16:41.293Z,42.03
2022-09-25T19:19:08.200Z,44.00
2022-09-25T19:21:35.349Z,35.00
2022-09-25T19:24:02.158Z,85.80
2022-09-25T19:26:28.998Z,62.28
2022-09-25T19:28:55.635Z,54.70
2022-09-25T19:31:24.646Z,26.08
2022-09-25T19:33:52.528Z,80.32
2022-09-25T19:36:24.744Z,17.08
2022-09-25T19:38:51.493Z,13.52
2022-09-25T19:41:30.216Z,37.45
2022-09-25T19:43:59.069Z,15.95
2022-09-25T19:46:27.442Z,6.22
2022-09-25T19:48:54.645Z,9.20
2022-09-25T19:51:22.840Z,6.47
2022-09-25T19:53:50.491Z,7.05
2022-09-25T19:56:19.108Z,5.28
2022-09-25T19:58:50.965Z,11.55
2022-09-25T20:01:27.302Z,7.15
2022-09-25T20:03:57.887Z,4.97
2022-09-25T20:06:25.996Z,4.70
2022-09-25T20:09:00.803Z,5.53
2022-09-25T20:11:28.272Z,6.97
2022-09-25T20:13:55.115Z,5.30
2022-09-25T20:16:27.665Z,9.50
2022-09-25T20:18:57.178Z,7.32
2022-09-25T20:21:28.587Z,6.68
2022-09-25T20:23:57.359Z,7.97
2022-09-25T20:26:24.290Z,7.70
2022-09-25T20:28:53.338Z,6.05
2022-09-25T20:31:20.519Z,6.00
2022-09-25T20:33:47.385Z,7.45
2022-09-25T20:36:15.282Z,11.80
2022-09-25T20:38:42.493Z,6.35
2022-09-25T20:41:11.281Z,8.65
2022-09-25T20:43:38.610Z,6.35
2022-09-25T20:46:08.163Z,6.95
2022-09-25T20:48:37.420Z,5.70
2022-09-25T20:51:05.521Z,5.47
2022-09-25T20:53:32.222Z,4.28
2022-09-25T20:56:13.356Z,6.13
2022-09-25T20:58:41.625Z,6.65
2022-09-25T21:01:11.167Z,5.05
2022-09-25T21:03:41.128Z,7.63
2022-09-25T21:06:15.282Z,5.30
2022-09-25T21:08:41.908Z,8.52
2022-09-25T21:11:10.426Z,7.63
2022-09-25T21:13:38.280Z,8.07
2022-09-25T21:16:09.862Z,9.30
2022-09-25T21:18:37.160Z,6.60
2022-09-25T21:21:06.508Z,7.45
2022-09-25T21:23:33.506Z,10.30
2022-09-25T21:26:11.731Z,6.97
2022-09-25T21:28:43.279Z,7.97
2022-09-25T21:31:16.054Z,9.15
2022-09-25T21:33:43.530Z,9.38
2022-09-25T21:36:15.426Z,7.88
2022-09-25T21:38:42.967Z,9.52
2022-09-25T21:41:12.671Z,6.25
2022-09-25T21:43:40.290Z,5.03
2022-09-25T21:46:10.590Z,7.60
2022-09-25T21:48:39.218Z,11.60
2022-09-25T21:51:07.841Z,5.28
2022-09-25T21:53:34.966Z,7.07
2022-09-25T21:56:06.871Z,8.30
2022-09-25T21:58:33.914Z,12.80
2022-09-25T22:01:07.947Z,8.55
2022-09-25T22:03:36.466Z,8.27
2022-09-25T22:06:06.494Z,7.13
2022-09-25T22:08:36.484Z,7.80
2022-09-25T22:11:04.385Z,8.07
2022-09-25T22:13:34.093Z,4.95
2022-09-25T22:16:09.198Z,6.38
2022-09-25T22:18:46.290Z,11.93
2022-09-25T22:21:15.341Z,9.95
2022-09-25T22:23:42.443Z,7.07
2022-09-25T22:26:09.588Z,7.28
2022-09-25T22:28:37.396Z,7.57
2022-09-25T22:31:06.695Z,9.27
2022-09-25T22:33:34.550Z,7.13
2022-09-25T22:36:03.955Z,6.53
2022-09-25T22:38:31.384Z,7.05
2022-09-25T22:41:03.718Z,6.75
2022-09-25T22:43:30.344Z,6.53
2022-09-25T22:45:57.433Z,10.02
2022-09-25T22:48:24.151Z,8.50
2022-09-25T22:51:02.114Z,6.18
2022-09-25T22:53:30.916Z,8.80
2022-09-25T22:56:14.571Z,7.63
2022-09-25T22:58:42.574Z,8.13
2022-09-25T23:01:12.411Z,9.50
2022-09-25T23:03:39.362Z,7.70
2022-09-25T23:06:06.338Z,7.47
2022-09-25T23:08:33.455Z,8.50
2022-09-25T23:11:08.342Z,7.53
2022-09-25T23:13:36.365Z,8.13
2022-09-25T23:16:07.897Z,5.97
2022-09-25T23:18:36.240Z,9.52
2022-09-25T23:21:03.213Z,5.78
2022-09-25T23:23:29.887Z,7.97
2022-09-25T23:26:07.941Z,6.88
2022-09-25T23:28:36.672Z,7.72
2022-09-25T23:31:10.379Z,6.43
2022-09-25T23:33:37.868Z,7.70
2022-09-25T23:36:07.270Z,9.32
2022-09-25T23:38:34.924Z,10.27
2022-09-25T23:41:02.555Z,7.18
2022-09-25T23:43:29.574Z,8.40
2022-09-25T23:45:56.225Z,9.25
2022-09-25T23:48:23.127Z,7.60
2022-09-25T23:50:51.183Z,13.30
2022-09-25T23:53:18.110Z,5.93
2022-09-25T23:55:44.933Z,6.95
2022-09-25T23:58:12.186Z,6.70
